Niedercorn, Luxembourg
Current Conditions -  °F | °C
As of 4:50 AM on Wednesday 26 Nov 2014 (Local Time) from ELLX Reporting Station
Broken Clouds Broken Clouds  
Wind Chill: 36°   Ceiling: 800
Heat Index: 41°   Visibility: 2.1mi
Dew Point: 39°   Wind: 7mph
Humidity: 93%   Direction: 60°ENE
Pressure: 29.97"   Gusts: NA
Location:  49.54°N, 5.89°E
Report Text: ELLX 260350Z 06006KT 3500 BKN008 05/04 Q1015 NOSIG
Loading
Personal Weather Stations






























Interactive Weather Map New forecast layout! Learn more

10-Day Weather Forecast

Advertisements
Track Severe Weather on mobile